createdAt,value
2019-01-17T00:01:03.434Z,93491.71
2019-01-17T00:03:46.601Z,93492.63
2019-01-17T00:06:40.365Z,93487.34
2019-01-17T00:09:22.902Z,93489.05
2019-01-17T00:12:16.685Z,93474.19
2019-01-17T00:15:10.125Z,93482.72
2019-01-17T00:18:05.009Z,93483.42
2019-01-17T00:20:44.423Z,93474.02
2019-01-17T00:23:32.142Z,93474.27
2019-01-17T00:26:18.731Z,93476.70
2019-01-17T00:29:09.138Z,93474.94
2019-01-17T00:31:51.522Z,93471.88
2019-01-17T00:34:45.157Z,93458.06
2019-01-17T00:37:32.749Z,93463.02
2019-01-17T00:40:23.442Z,93469.34
2019-01-17T00:43:14.523Z,93458.06
2019-01-17T00:46:05.213Z,93438.72
2019-01-17T00:48:52.302Z,93451.91
2019-01-17T00:51:38.476Z,93456.40
2019-01-17T00:54:15.774Z,93451.57
2019-01-17T00:57:03.482Z,93444.50
2019-01-17T00:59:49.847Z,93449.42
2019-01-17T01:02:37.893Z,93453.24
2019-01-17T01:05:25.759Z,93454.33
2019-01-17T01:08:09.158Z,93453.23
2019-01-17T01:10:57.451Z,93456.72
2019-01-17T01:13:35.878Z,93451.45
2019-01-17T01:16:40.895Z,93446.30
2019-01-17T01:19:20.710Z,93452.36
2019-01-17T01:22:18.795Z,93444.05
2019-01-17T01:25:15.444Z,93450.09
2019-01-17T01:28:06.465Z,93457.00
2019-01-17T01:30:46.579Z,93457.47
2019-01-17T01:33:37.639Z,93444.69
2019-01-17T01:36:43.464Z,93451.70
2019-01-17T01:39:28.943Z,93441.69
2019-01-17T01:42:15.068Z,93464.84
2019-01-17T01:45:08.834Z,93459.66
2019-01-17T01:48:04.928Z,93461.04
2019-01-17T01:51:07.826Z,93463.85
2019-01-17T01:53:36.405Z,93463.09
2019-01-17T01:56:05.082Z,93477.03
2019-01-17T01:58:33.732Z,93458.16
2019-01-17T02:01:02.380Z,93468.33
2019-01-17T02:03:30.969Z,93463.70
2019-01-17T02:05:59.559Z,93467.12
2019-01-17T02:08:28.178Z,93470.88
2019-01-17T02:10:56.772Z,93467.63
2019-01-17T02:13:25.438Z,93469.62
2019-01-17T02:15:54.124Z,93458.61
2019-01-17T02:18:22.721Z,93463.86
2019-01-17T02:20:51.419Z,93464.08
2019-01-17T02:23:20.000Z,93457.98
2019-01-17T02:25:48.570Z,93466.36
2019-01-17T02:28:17.197Z,93457.47
2019-01-17T02:30:45.790Z,93470.27
2019-01-17T02:33:14.353Z,93467.63
2019-01-17T02:35:42.933Z,93465.88
2019-01-17T02:38:11.501Z,93466.33
2019-01-17T02:40:40.088Z,93478.17
2019-01-17T02:43:08.654Z,93471.28
2019-01-17T02:45:37.254Z,93466.00
2019-01-17T02:48:05.848Z,93475.35
2019-01-17T02:50:34.426Z,93466.92
2019-01-17T02:53:02.977Z,93476.27
2019-01-17T02:55:31.555Z,93475.03
2019-01-17T02:58:00.149Z,93474.09
2019-01-17T03:00:28.713Z,93472.10
2019-01-17T03:02:57.297Z,93486.38
2019-01-17T03:05:25.869Z,93473.19
2019-01-17T03:07:54.446Z,93482.57
2019-01-17T03:10:23.320Z,93473.56
2019-01-17T03:12:51.966Z,93489.99
2019-01-17T03:15:20.531Z,93483.53
2019-01-17T03:17:49.114Z,93484.04
2019-01-17T03:20:17.747Z,93476.95
2019-01-17T03:22:46.396Z,93473.80
2019-01-17T03:25:15.057Z,93490.58
2019-01-17T03:27:43.717Z,93480.38
2019-01-17T03:30:17.816Z,93476.89
2019-01-17T03:32:46.412Z,93478.85
2019-01-17T03:35:15.039Z,93487.58
2019-01-17T03:37:43.780Z,93479.89
2019-01-17T03:40:18.453Z,93472.23
2019-01-17T03:42:47.011Z,93471.76
2019-01-17T03:45:15.847Z,93474.78
2019-01-17T03:47:44.515Z,93477.98
2019-01-17T03:50:14.685Z,93479.57
2019-01-17T03:52:43.403Z,93474.16
2019-01-17T03:55:14.217Z,93474.84
2019-01-17T03:57:43.108Z,93472.50
2019-01-17T04:02:49.646Z,93483.32
2019-01-17T04:05:18.506Z,93481.78
2019-01-17T04:07:47.189Z,93472.52
2019-01-17T04:10:16.213Z,93463.38
2019-01-17T04:12:44.772Z,93468.42
2019-01-17T04:15:13.475Z,93449.49
2019-01-17T04:17:42.057Z,93443.73
2019-01-17T04:20:13.870Z,93447.25
2019-01-17T04:22:42.546Z,93442.87
2019-01-17T04:25:11.294Z,93448.93
2019-01-17T04:27:40.141Z,93446.29
2019-01-17T04:30:12.028Z,93447.91
2019-01-17T04:32:40.721Z,93448.93
2019-01-17T04:35:09.364Z,93450.58
2019-01-17T04:37:37.939Z,93454.34
2019-01-17T04:40:07.333Z,93456.08
2019-01-17T04:42:35.899Z,93451.38
2019-01-17T04:45:04.879Z,93461.26
2019-01-17T04:47:33.519Z,93470.01
2019-01-17T04:50:02.111Z,93468.27
2019-01-17T04:52:30.699Z,93470.66
2019-01-17T04:55:05.123Z,93463.37
2019-01-17T04:57:29.681Z,93466.75
2019-01-17T04:59:58.348Z,93457.12
2019-01-17T05:02:26.990Z,93454.07
2019-01-17T05:04:55.577Z,93460.87
2019-01-17T05:07:24.141Z,93447.27
2019-01-17T05:09:52.802Z,93471.06
2019-01-17T05:12:21.366Z,93471.26
2019-01-17T05:14:49.940Z,93459.94
2019-01-17T05:17:18.541Z,93468.61
2019-01-17T05:19:47.141Z,93461.98
2019-01-17T05:22:15.922Z,93467.34
2019-01-17T05:24:44.488Z,93462.59
2019-01-17T05:27:13.069Z,93458.34
2019-01-17T05:29:41.657Z,93456.25
2019-01-17T05:32:10.217Z,93461.11
2019-01-17T05:34:39.677Z,93461.36
2019-01-17T05:37:08.514Z,93464.20
2019-01-17T05:39:37.179Z,93465.34
2019-01-17T05:42:05.823Z,93458.72
2019-01-17T05:44:34.397Z,93459.56
2019-01-17T05:47:03.055Z,93466.52
2019-01-17T05:49:31.647Z,93460.02
2019-01-17T05:52:00.298Z,93461.28
2019-01-17T05:54:28.861Z,93455.70
2019-01-17T05:56:57.480Z,93451.46
2019-01-17T05:59:26.277Z,93455.33
2019-01-17T06:01:54.898Z,93455.31
2019-01-17T06:04:23.825Z,93456.08
2019-01-17T06:06:52.388Z,93454.11
2019-01-17T06:09:20.978Z,93449.59
2019-01-17T06:11:49.626Z,93444.48
2019-01-17T06:14:18.457Z,93443.96
2019-01-17T06:16:47.055Z,93451.53
2019-01-17T06:19:15.657Z,93445.39
2019-01-17T06:21:44.294Z,93443.43
2019-01-17T06:24:12.929Z,93442.47
2019-01-17T06:26:41.638Z,93448.17
2019-01-17T06:29:10.238Z,93453.29
2019-01-17T06:31:38.834Z,93450.97
2019-01-17T06:34:07.522Z,93453.00
2019-01-17T06:36:36.115Z,93460.79
2019-01-17T06:39:07.493Z,93457.59
2019-01-17T06:41:36.252Z,93452.51
2019-01-17T06:44:04.830Z,93448.60
2019-01-17T06:46:33.433Z,93450.41
2019-01-17T06:49:02.106Z,93453.52
2019-01-17T06:51:30.697Z,93457.40
2019-01-17T06:53:59.265Z,93447.03
2019-01-17T06:56:27.862Z,93448.67
2019-01-17T06:58:56.441Z,93449.46
2019-01-17T07:01:25.024Z,93455.86
2019-01-17T07:03:53.620Z,93461.78
2019-01-17T07:06:22.199Z,93461.98
2019-01-17T07:08:50.868Z,93455.63
2019-01-17T07:11:19.744Z,93454.84
2019-01-17T07:13:48.585Z,93446.30
2019-01-17T07:16:17.144Z,93441.17
2019-01-17T07:18:45.751Z,93435.53
2019-01-17T07:21:14.506Z,93444.51
2019-01-17T07:23:43.090Z,93452.29
2019-01-17T07:26:11.679Z,93461.70
2019-01-17T07:28:40.246Z,93468.41
2019-01-17T07:31:08.831Z,93472.73
2019-01-17T07:33:37.408Z,93478.91
2019-01-17T07:36:06.077Z,93479.77
2019-01-17T07:38:34.660Z,93471.74
2019-01-17T07:41:03.492Z,93486.64
2019-01-17T07:43:32.048Z,93475.95
2019-01-17T07:46:00.643Z,93469.41
2019-01-17T07:48:29.207Z,93458.15
2019-01-17T07:50:58.035Z,93463.34
2019-01-17T07:53:26.686Z,93467.15
2019-01-17T07:55:55.272Z,93455.75
2019-01-17T07:58:24.077Z,93459.84
2019-01-17T08:00:52.677Z,93466.17
2019-01-17T08:03:21.238Z,93465.84
2019-01-17T08:05:50.001Z,93463.34
2019-01-17T08:08:18.550Z,93465.39
2019-01-17T08:10:47.150Z,93471.06
2019-01-17T08:13:15.830Z,93473.03
2019-01-17T08:15:44.428Z,93475.63
2019-01-17T08:18:18.628Z,93476.25
2019-01-17T08:20:43.326Z,93494.55
2019-01-17T08:23:11.907Z,93484.37
2019-01-17T08:25:40.500Z,93477.16
2019-01-17T08:28:09.167Z,93487.25
2019-01-17T08:30:37.744Z,93485.59
2019-01-17T08:33:06.409Z,93481.34
2019-01-17T08:35:34.974Z,93477.11
2019-01-17T08:38:03.569Z,93480.52
2019-01-17T08:40:33.519Z,93479.01
2019-01-17T08:43:02.870Z,93474.14
2019-01-17T08:45:31.532Z,93480.47
2019-01-17T08:48:00.176Z,93474.13
2019-01-17T08:50:28.819Z,93483.13
2019-01-17T08:52:57.391Z,93484.42
2019-01-17T08:55:25.981Z,93484.22
2019-01-17T08:57:54.610Z,93487.97
2019-01-17T09:00:24.235Z,93493.69
2019-01-17T09:02:53.155Z,93485.66
2019-01-17T09:05:21.793Z,93488.19
2019-01-17T09:07:50.368Z,93486.64
2019-01-17T09:10:21.382Z,93491.04
2019-01-17T09:12:50.026Z,93487.98
2019-01-17T09:15:20.215Z,93486.70
2019-01-17T09:17:48.951Z,93486.39
2019-01-17T09:20:17.528Z,93483.13
2019-01-17T09:22:46.110Z,93486.21
2019-01-17T09:25:15.317Z,93480.98
2019-01-17T09:27:43.959Z,93478.00
2019-01-17T09:30:15.022Z,93476.85
2019-01-17T09:32:43.744Z,93488.55
2019-01-17T09:35:13.115Z,93482.38
2019-01-17T09:37:41.848Z,93475.31
2019-01-17T09:40:15.427Z,93481.58
2019-01-17T09:42:44.103Z,93476.11
2019-01-17T09:45:12.873Z,93482.50
2019-01-17T09:47:41.555Z,93478.93
2019-01-17T09:50:19.424Z,93465.36
2019-01-17T09:52:48.018Z,93474.77
2019-01-17T09:55:16.677Z,93476.34
2019-01-17T09:57:45.235Z,93477.33
2019-01-17T10:00:16.570Z,93462.78
2019-01-17T10:02:45.223Z,93467.64
2019-01-17T10:05:13.877Z,93470.54
2019-01-17T10:07:42.818Z,93459.86
2019-01-17T10:10:13.688Z,93462.50
2019-01-17T10:12:42.237Z,93464.56
2019-01-17T10:15:23.654Z,93452.54
2019-01-17T10:18:27.320Z,93458.16
2019-01-17T10:21:25.951Z,93457.24
2019-01-17T10:24:19.626Z,93446.50
2019-01-17T10:27:15.253Z,93440.37
2019-01-17T10:30:07.737Z,93448.30
2019-01-17T10:32:59.364Z,93441.62
2019-01-17T10:35:40.374Z,93436.96
2019-01-17T10:38:53.443Z,93423.38
2019-01-17T10:42:00.087Z,93423.92
2019-01-17T10:44:48.050Z,93422.05
2019-01-17T10:48:00.323Z,93426.39
2019-01-17T10:51:10.752Z,93410.59
2019-01-17T10:54:30.838Z,93402.97
2019-01-17T10:57:27.052Z,93396.81
2019-01-17T11:00:19.562Z,93385.63
2019-01-17T11:03:14.577Z,93387.36
2019-01-17T11:06:13.300Z,93385.58
2019-01-17T11:09:19.544Z,93379.94
2019-01-17T11:12:03.454Z,93367.88
2019-01-17T11:14:49.279Z,93364.80
2019-01-17T11:17:44.174Z,93359.42
2019-01-17T11:20:52.421Z,93360.77
2019-01-17T11:23:48.254Z,93352.42
2019-01-17T11:26:40.863Z,93348.92
2019-01-17T11:29:31.197Z,93349.33
2019-01-17T11:32:16.834Z,93344.41
2019-01-17T11:34:59.055Z,93326.72
2019-01-17T11:38:07.080Z,93330.85
2019-01-17T11:41:05.755Z,93330.41
2019-01-17T11:44:40.057Z,93326.39
2019-01-17T11:47:50.173Z,93326.34
2019-01-17T11:50:36.725Z,93322.16
2019-01-17T11:53:24.404Z,93319.89
2019-01-17T11:56:30.245Z,93306.30
2019-01-17T11:59:43.194Z,93309.63
2019-01-17T12:02:50.057Z,93302.38
2019-01-17T12:05:18.693Z,93300.61
2019-01-17T12:07:48.085Z,93308.63
2019-01-17T12:10:16.656Z,93290.11
2019-01-17T12:12:45.535Z,93284.95
2019-01-17T12:15:14.130Z,93283.94
2019-01-17T12:17:42.755Z,93278.01
2019-01-17T12:20:11.409Z,93271.98
2019-01-17T12:22:40.082Z,93275.48
2019-01-17T12:25:08.827Z,93275.97
2019-01-17T12:27:42.565Z,93274.64
2019-01-17T12:30:11.855Z,93261.84
2019-01-17T12:32:40.439Z,93263.00
2019-01-17T12:35:10.452Z,93257.11
2019-01-17T12:37:39.030Z,93251.32
2019-01-17T12:40:09.909Z,93258.27
2019-01-17T12:42:38.578Z,93263.93
2019-01-17T12:45:08.268Z,93262.91
2019-01-17T12:47:36.890Z,93257.73
2019-01-17T12:50:09.544Z,93265.11
2019-01-17T12:52:38.137Z,93265.45
2019-01-17T12:55:07.038Z,93255.45
2019-01-17T12:57:35.660Z,93256.47
2019-01-17T13:00:07.850Z,93255.66
2019-01-17T13:02:36.564Z,93263.94
2019-01-17T13:05:05.237Z,93259.05
2019-01-17T13:07:33.844Z,93262.13
2019-01-17T13:10:02.728Z,93263.59
2019-01-17T13:12:31.286Z,93260.55
2019-01-17T13:14:59.888Z,93261.86
2019-01-17T13:17:28.455Z,93264.44
2019-01-17T13:19:57.038Z,93271.87
2019-01-17T13:22:25.686Z,93261.49
2019-01-17T13:24:54.539Z,93257.92
2019-01-17T13:27:23.176Z,93260.20
2019-01-17T13:29:51.746Z,93260.20
2019-01-17T13:32:20.381Z,93269.83
2019-01-17T13:34:48.995Z,93258.95
2019-01-17T13:37:17.579Z,93259.30
2019-01-17T13:39:46.160Z,93263.27
2019-01-17T13:42:20.677Z,93265.98
2019-01-17T13:44:45.033Z,93268.80
2019-01-17T13:47:13.667Z,93277.27
2019-01-17T13:49:42.364Z,93284.17
2019-01-17T13:52:10.990Z,93295.67
2019-01-17T13:54:39.678Z,93299.59
2019-01-17T13:57:08.289Z,93289.33
2019-01-17T13:59:36.866Z,93310.38
2019-01-17T14:02:05.559Z,93308.09
2019-01-17T14:04:34.133Z,93318.56
2019-01-17T14:07:02.808Z,93332.47
2019-01-17T14:09:31.624Z,93348.16
2019-01-17T14:12:00.206Z,93351.69
2019-01-17T14:14:29.012Z,93352.08
2019-01-17T14:16:57.647Z,93372.66
2019-01-17T14:19:28.435Z,93374.36
2019-01-17T14:21:56.778Z,93376.23
2019-01-17T14:24:25.510Z,93384.44
2019-01-17T14:26:54.433Z,93391.92
2019-01-17T14:29:23.070Z,93383.61
2019-01-17T14:31:51.654Z,93390.83
2019-01-17T14:34:20.211Z,93387.39
2019-01-17T14:36:48.797Z,93391.68
2019-01-17T14:39:17.653Z,93398.05
2019-01-17T14:41:46.401Z,93398.31
2019-01-17T14:44:15.075Z,93408.95
2019-01-17T14:46:43.661Z,93409.91
2019-01-17T14:49:12.339Z,93412.24
2019-01-17T14:51:41.115Z,93413.45
2019-01-17T14:54:09.719Z,93411.30
2019-01-17T14:56:38.346Z,93432.55
2019-01-17T14:59:06.958Z,93424.72
2019-01-17T15:01:35.530Z,93428.70
2019-01-17T15:04:04.644Z,93438.05
2019-01-17T15:06:33.255Z,93444.60
2019-01-17T15:09:01.832Z,93451.42
2019-01-17T15:11:30.494Z,93450.08
2019-01-17T15:13:59.334Z,93465.23
2019-01-17T15:16:28.319Z,93471.32
2019-01-17T15:18:56.922Z,93478.02
2019-01-17T15:21:25.500Z,93487.42
2019-01-17T15:23:54.135Z,93491.86
2019-01-17T15:26:22.727Z,93493.50
2019-01-17T15:28:51.334Z,93499.13
2019-01-17T15:31:19.998Z,93513.52
2019-01-17T15:33:48.588Z,93508.33
2019-01-17T15:36:17.199Z,93521.68
2019-01-17T15:38:45.787Z,93518.06
2019-01-17T15:41:17.695Z,93524.23
2019-01-17T15:43:46.380Z,93517.22
2019-01-17T15:46:15.232Z,93535.23
2019-01-17T15:48:44.078Z,93536.27
2019-01-17T15:51:12.659Z,93538.08
2019-01-17T15:53:41.274Z,93543.30
2019-01-17T15:56:09.874Z,93547.27
2019-01-17T15:58:38.484Z,93549.61
2019-01-17T16:01:07.387Z,93568.69
2019-01-17T16:03:36.007Z,93578.57
2019-01-17T16:06:04.580Z,93582.70
2019-01-17T16:08:33.200Z,93593.23
2019-01-17T16:11:01.801Z,93590.93
2019-01-17T16:13:30.414Z,93594.65
2019-01-17T16:15:58.980Z,93593.10
2019-01-17T16:18:27.564Z,93600.42
2019-01-17T16:20:56.144Z,93603.87
2019-01-17T16:23:24.989Z,93614.21
2019-01-17T16:25:53.463Z,93606.67
2019-01-17T16:28:22.197Z,93617.72
2019-01-17T16:30:50.821Z,93624.98
2019-01-17T16:33:19.531Z,93622.14
2019-01-17T16:35:48.104Z,93621.72
2019-01-17T16:38:16.698Z,93638.22
2019-01-17T16:40:45.272Z,93638.04
2019-01-17T16:43:13.978Z,93648.92
2019-01-17T16:45:42.588Z,93642.50
2019-01-17T16:48:11.464Z,93654.13
2019-01-17T16:50:40.035Z,93648.64
2019-01-17T16:53:08.627Z,93653.48
2019-01-17T16:55:37.448Z,93648.67
2019-01-17T16:58:06.247Z,93652.19
2019-01-17T17:00:43.357Z,93660.44
2019-01-17T17:03:12.002Z,93675.63
2019-01-17T17:05:40.697Z,93676.64
2019-01-17T17:08:09.316Z,93664.79
2019-01-17T17:10:37.895Z,93678.58
2019-01-17T17:13:06.939Z,93689.92
2019-01-17T17:15:35.652Z,93695.48
2019-01-17T17:18:06.599Z,93688.92
2019-01-17T17:20:35.127Z,93697.89
2019-01-17T17:23:03.998Z,93697.03
2019-01-17T17:25:32.690Z,93700.45
2019-01-17T17:28:01.306Z,93714.65
2019-01-17T17:30:29.992Z,93721.73
2019-01-17T17:32:58.578Z,93734.93
2019-01-17T17:35:27.552Z,93726.17
2019-01-17T17:37:56.167Z,93745.78
2019-01-17T17:40:26.879Z,93748.48
2019-01-17T17:42:55.467Z,93761.98
2019-01-17T17:45:24.039Z,93764.42
2019-01-17T17:47:53.022Z,93765.91
2019-01-17T17:50:21.676Z,93765.63
2019-01-17T17:52:50.340Z,93771.77
2019-01-17T17:55:19.184Z,93786.27
2019-01-17T17:57:47.941Z,93772.73
2019-01-17T18:00:33.220Z,93775.50
2019-01-17T18:03:01.818Z,93789.47
2019-01-17T18:05:30.387Z,93784.70
2019-01-17T18:07:58.974Z,93787.84
2019-01-17T18:10:27.817Z,93790.34
2019-01-17T18:12:56.424Z,93791.30
2019-01-17T18:15:25.314Z,93796.39
2019-01-17T18:17:53.945Z,93805.89
2019-01-17T18:20:22.640Z,93799.88
2019-01-17T18:22:51.280Z,93800.53
2019-01-17T18:25:19.882Z,93797.09
2019-01-17T18:27:48.543Z,93805.45
2019-01-17T18:30:19.416Z,93799.23
2019-01-17T18:32:48.072Z,93806.56
2019-01-17T18:35:16.858Z,93810.02
2019-01-17T18:37:46.589Z,93807.70
2019-01-17T18:40:16.142Z,93810.33
2019-01-17T18:42:44.690Z,93820.61
2019-01-17T18:45:15.337Z,93812.83
2019-01-17T18:47:44.130Z,93833.98
2019-01-17T18:50:17.972Z,93827.39
2019-01-17T18:52:46.627Z,93835.39
2019-01-17T18:55:15.480Z,93848.64
2019-01-17T18:57:44.067Z,93843.66
2019-01-17T19:00:20.339Z,93859.17
2019-01-17T19:02:49.070Z,93857.42
2019-01-17T19:05:18.146Z,93865.02
2019-01-17T19:07:46.967Z,93872.91
2019-01-17T19:10:16.116Z,93871.75
2019-01-17T19:12:45.283Z,93876.35
2019-01-17T19:15:20.142Z,93890.33
2019-01-17T19:17:48.829Z,93883.11
2019-01-17T19:20:17.873Z,93890.08
2019-01-17T19:22:46.543Z,93885.29
2019-01-17T19:25:15.223Z,93890.09
2019-01-17T19:27:43.861Z,93893.42
2019-01-17T19:30:17.814Z,93888.59
2019-01-17T19:32:46.464Z,93898.32
2019-01-17T19:35:15.171Z,93899.03
2019-01-17T19:37:43.910Z,93896.63
2019-01-17T19:40:15.601Z,93897.86
2019-01-17T19:42:44.227Z,93901.78
2019-01-17T19:45:13.041Z,93900.41
2019-01-17T19:47:43.280Z,93903.81
2019-01-17T19:50:18.290Z,93914.41
2019-01-17T19:52:47.660Z,93919.59
2019-01-17T19:55:16.312Z,93923.24
2019-01-17T19:57:45.127Z,93931.04
2019-01-17T20:00:15.114Z,93937.11
2019-01-17T20:02:44.128Z,93933.02
2019-01-17T20:05:14.012Z,93937.31
2019-01-17T20:07:42.619Z,93935.10
2019-01-17T20:10:14.984Z,93941.83
2019-01-17T20:12:45.030Z,93951.08
2019-01-17T20:15:22.687Z,93944.55
2019-01-17T20:17:51.516Z,93958.16
2019-01-17T20:20:20.163Z,93970.20
2019-01-17T20:22:48.853Z,93968.88
2019-01-17T20:25:17.603Z,93980.96
2019-01-17T20:27:48.669Z,93976.05
2019-01-17T20:30:22.410Z,93981.34
2019-01-17T20:32:51.100Z,93984.97
2019-01-17T20:35:19.838Z,93985.30
2019-01-17T20:37:48.543Z,93986.23
2019-01-17T20:40:19.545Z,93986.66
2019-01-17T20:42:48.564Z,93998.51
2019-01-17T20:45:17.357Z,94000.42
2019-01-17T20:47:46.257Z,94006.62
2019-01-17T20:50:20.240Z,94004.48
2019-01-17T20:52:48.919Z,94017.61
2019-01-17T20:55:17.754Z,94018.05
2019-01-17T20:57:47.944Z,94021.30
2019-01-17T21:00:21.525Z,94028.38
2019-01-17T21:02:50.293Z,94030.47
2019-01-17T21:05:20.718Z,94030.94
2019-01-17T21:07:49.416Z,94039.94
2019-01-17T21:10:19.136Z,94042.90
2019-01-17T21:12:47.752Z,94048.63
2019-01-17T21:15:25.899Z,94054.63
2019-01-17T21:17:54.664Z,94058.08
2019-01-17T21:20:23.263Z,94066.09
2019-01-17T21:22:51.843Z,94071.92
2019-01-17T21:25:20.424Z,94060.87
2019-01-17T21:27:49.262Z,94079.84
2019-01-17T21:30:20.459Z,94084.80
2019-01-17T21:32:49.037Z,94075.05
2019-01-17T21:35:17.682Z,94084.02
2019-01-17T21:37:46.261Z,94091.80
2019-01-17T21:40:16.827Z,94090.45
2019-01-17T21:42:45.501Z,94091.53
2019-01-17T21:45:15.416Z,94094.45
2019-01-17T21:47:44.101Z,94102.59
2019-01-17T21:50:15.209Z,94105.44
2019-01-17T21:52:43.838Z,94110.13
2019-01-17T21:55:12.464Z,94116.44
2019-01-17T21:57:41.102Z,94116.27
2019-01-17T22:00:13.527Z,94120.69
2019-01-17T22:02:42.137Z,94134.14
2019-01-17T22:05:11.042Z,94139.31
2019-01-17T22:07:39.899Z,94133.09
2019-01-17T22:10:09.627Z,94144.68
2019-01-17T22:12:38.250Z,94151.47
2019-01-17T22:15:09.672Z,94155.81
2019-01-17T22:17:38.231Z,94152.41
2019-01-17T22:20:07.736Z,94153.75
2019-01-17T22:22:36.384Z,94151.95
2019-01-17T22:25:06.078Z,94154.45
2019-01-17T22:27:34.652Z,94151.84
2019-01-17T22:30:03.693Z,94146.39
2019-01-17T22:32:32.282Z,94142.92
2019-01-17T22:35:00.914Z,94151.61
2019-01-17T22:37:29.485Z,94149.92
2019-01-17T22:39:58.057Z,94150.91
2019-01-17T22:42:26.640Z,94161.52
2019-01-17T22:44:55.243Z,94151.64
2019-01-17T22:47:24.675Z,94160.38
2019-01-17T22:49:53.331Z,94165.34
2019-01-17T22:52:21.987Z,94170.07
2019-01-17T22:54:50.585Z,94173.03
2019-01-17T22:57:19.425Z,94180.19
2019-01-17T22:59:48.024Z,94180.15
2019-01-17T23:02:16.829Z,94192.23
2019-01-17T23:04:45.689Z,94185.66
2019-01-17T23:07:14.254Z,94193.55
2019-01-17T23:09:42.961Z,94190.34
2019-01-17T23:12:11.543Z,94192.72
2019-01-17T23:14:40.206Z,94200.49
2019-01-17T23:17:08.948Z,94206.27
2019-01-17T23:19:37.840Z,94212.27
2019-01-17T23:22:06.732Z,94218.20
2019-01-17T23:24:35.297Z,94219.31
2019-01-17T23:27:03.991Z,94221.95
2019-01-17T23:29:32.667Z,94229.21
2019-01-17T23:32:01.237Z,94226.58
2019-01-17T23:34:29.816Z,94242.55
2019-01-17T23:36:58.403Z,94247.80
2019-01-17T23:39:27.567Z,94239.73
2019-01-17T23:41:56.362Z,94251.19
2019-01-17T23:44:25.190Z,94240.67
2019-01-17T23:46:53.830Z,94247.38
2019-01-17T23:49:22.453Z,94250.22
2019-01-17T23:51:50.969Z,94243.80
2019-01-17T23:54:19.569Z,94248.88
2019-01-17T23:56:48.152Z,94257.41
2019-01-17T23:59:22.498Z,94256.75
